sensor_id;sensor_type;location;lat;lon;timestamp;P1;durP1;ratioP1;P2;durP2;ratioP2
18606;SDS011;9433;42.678;23.360;2022-07-10T00:01:49;9.13;;;8.07;;
18606;SDS011;9433;42.678;23.360;2022-07-10T00:04:18;10.07;;;8.43;;
18606;SDS011;9433;42.678;23.360;2022-07-10T00:06:44;9.43;;;8.47;;
18606;SDS011;9433;42.678;23.360;2022-07-10T00:09:12;12.70;;;9.00;;
18606;SDS011;9433;42.678;23.360;2022-07-10T00:11:39;8.83;;;7.77;;
18606;SDS011;9433;42.678;23.360;2022-07-10T00:14:05;9.40;;;8.40;;
18606;SDS011;9433;42.678;23.360;2022-07-10T00:16:32;8.87;;;7.97;;
18606;SDS011;9433;42.678;23.360;2022-07-10T00:19:00;9.50;;;8.50;;
18606;SDS011;9433;42.678;23.360;2022-07-10T00:21:28;9.93;;;8.93;;
18606;SDS011;9433;42.678;23.360;2022-07-10T00:23:55;8.67;;;7.87;;
18606;SDS011;9433;42.678;23.360;2022-07-10T00:26:21;10.33;;;8.10;;
18606;SDS011;9433;42.678;23.360;2022-07-10T00:28:48;9.33;;;8.13;;
18606;SDS011;9433;42.678;23.360;2022-07-10T00:31:15;9.10;;;8.13;;
18606;SDS011;9433;42.678;23.360;2022-07-10T00:33:42;9.10;;;8.20;;
18606;SDS011;9433;42.678;23.360;2022-07-10T00:36:09;9.60;;;8.60;;
18606;SDS011;9433;42.678;23.360;2022-07-10T00:38:37;9.73;;;8.53;;
18606;SDS011;9433;42.678;23.360;2022-07-10T00:41:04;8.00;;;7.20;;
18606;SDS011;9433;42.678;23.360;2022-07-10T00:43:31;12.50;;;8.30;;
18606;SDS011;9433;42.678;23.360;2022-07-10T00:46:17;8.33;;;7.30;;
18606;SDS011;9433;42.678;23.360;2022-07-10T00:48:45;10.47;;;8.07;;
18606;SDS011;9433;42.678;23.360;2022-07-10T00:51:12;9.40;;;8.50;;
18606;SDS011;9433;42.678;23.360;2022-07-10T00:53:40;8.73;;;7.57;;
18606;SDS011;9433;42.678;23.360;2022-07-10T00:56:07;9.50;;;7.67;;
18606;SDS011;9433;42.678;23.360;2022-07-10T00:58:35;9.37;;;8.47;;
18606;SDS011;9433;42.678;23.360;2022-07-10T01:01:02;10.60;;;8.10;;
18606;SDS011;9433;42.678;23.360;2022-07-10T01:03:29;9.60;;;8.60;;
18606;SDS011;9433;42.678;23.360;2022-07-10T01:05:55;9.50;;;8.57;;
18606;SDS011;9433;42.678;23.360;2022-07-10T01:08:23;9.90;;;8.90;;
18606;SDS011;9433;42.678;23.360;2022-07-10T01:10:51;9.37;;;8.37;;
18606;SDS011;9433;42.678;23.360;2022-07-10T01:13:18;8.57;;;7.67;;
18606;SDS011;9433;42.678;23.360;2022-07-10T01:15:46;8.77;;;7.90;;
18606;SDS011;9433;42.678;23.360;2022-07-10T01:18:13;8.90;;;7.83;;
18606;SDS011;9433;42.678;23.360;2022-07-10T01:20:40;10.13;;;8.30;;
18606;SDS011;9433;42.678;23.360;2022-07-10T01:23:08;9.00;;;8.10;;
18606;SDS011;9433;42.678;23.360;2022-07-10T01:25:35;8.10;;;7.30;;
18606;SDS011;9433;42.678;23.360;2022-07-10T01:28:02;8.17;;;7.37;;
18606;SDS011;9433;42.678;23.360;2022-07-10T01:30:29;9.43;;;8.00;;
18606;SDS011;9433;42.678;23.360;2022-07-10T01:32:56;9.47;;;7.93;;
18606;SDS011;9433;42.678;23.360;2022-07-10T01:35:23;8.97;;;7.90;;
18606;SDS011;9433;42.678;23.360;2022-07-10T01:37:50;9.57;;;8.40;;
18606;SDS011;9433;42.678;23.360;2022-07-10T01:40:18;8.20;;;7.43;;
18606;SDS011;9433;42.678;23.360;2022-07-10T01:42:45;7.77;;;6.97;;
18606;SDS011;9433;42.678;23.360;2022-07-10T01:45:12;10.20;;;8.27;;
18606;SDS011;9433;42.678;23.360;2022-07-10T01:47:39;9.97;;;7.80;;
18606;SDS011;9433;42.678;23.360;2022-07-10T01:50:06;8.63;;;7.77;;
18606;SDS011;9433;42.678;23.360;2022-07-10T01:52:33;8.80;;;7.87;;
18606;SDS011;9433;42.678;23.360;2022-07-10T01:55:00;8.70;;;7.50;;
18606;SDS011;9433;42.678;23.360;2022-07-10T01:57:28;17.43;;;8.23;;
18606;SDS011;9433;42.678;23.360;2022-07-10T01:59:55;9.50;;;7.60;;
18606;SDS011;9433;42.678;23.360;2022-07-10T02:02:22;8.67;;;7.23;;
18606;SDS011;9433;42.678;23.360;2022-07-10T02:04:48;8.47;;;7.67;;
18606;SDS011;9433;42.678;23.360;2022-07-10T02:07:15;11.73;;;8.17;;
18606;SDS011;9433;42.678;23.360;2022-07-10T02:09:43;10.23;;;7.87;;
18606;SDS011;9433;42.678;23.360;2022-07-10T02:12:11;10.23;;;8.03;;
18606;SDS011;9433;42.678;23.360;2022-07-10T02:14:40;8.80;;;7.90;;
18606;SDS011;9433;42.678;23.360;2022-07-10T02:17:07;8.60;;;7.70;;
18606;SDS011;9433;42.678;23.360;2022-07-10T02:19:36;10.27;;;7.87;;
18606;SDS011;9433;42.678;23.360;2022-07-10T02:22:03;7.70;;;7.00;;
18606;SDS011;9433;42.678;23.360;2022-07-10T02:24:30;9.23;;;7.27;;
18606;SDS011;9433;42.678;23.360;2022-07-10T02:26:57;8.73;;;7.57;;
18606;SDS011;9433;42.678;23.360;2022-07-10T02:29:24;7.27;;;6.57;;
18606;SDS011;9433;42.678;23.360;2022-07-10T02:31:52;8.37;;;7.57;;
18606;SDS011;9433;42.678;23.360;2022-07-10T02:34:19;7.97;;;7.17;;
18606;SDS011;9433;42.678;23.360;2022-07-10T02:36:46;7.73;;;6.70;;
18606;SDS011;9433;42.678;23.360;2022-07-10T02:39:12;8.03;;;7.23;;
18606;SDS011;9433;42.678;23.360;2022-07-10T02:41:39;8.13;;;7.30;;
18606;SDS011;9433;42.678;23.360;2022-07-10T02:44:06;10.13;;;7.47;;
18606;SDS011;9433;42.678;23.360;2022-07-10T02:46:33;8.33;;;7.53;;
18606;SDS011;9433;42.678;23.360;2022-07-10T02:49:01;9.67;;;7.13;;
18606;SDS011;9433;42.678;23.360;2022-07-10T02:51:29;8.90;;;7.47;;
18606;SDS011;9433;42.678;23.360;2022-07-10T02:53:55;9.13;;;7.70;;
18606;SDS011;9433;42.678;23.360;2022-07-10T02:56:23;10.87;;;7.97;;
18606;SDS011;9433;42.678;23.360;2022-07-10T02:58:50;8.63;;;7.17;;
18606;SDS011;9433;42.678;23.360;2022-07-10T03:01:17;9.40;;;8.13;;
18606;SDS011;9433;42.678;23.360;2022-07-10T03:03:43;9.17;;;7.57;;
18606;SDS011;9433;42.678;23.360;2022-07-10T03:06:12;8.83;;;7.63;;
18606;SDS011;9433;42.678;23.360;2022-07-10T03:08:38;7.70;;;6.93;;
18606;SDS011;9433;42.678;23.360;2022-07-10T03:11:05;8.07;;;7.17;;
18606;SDS011;9433;42.678;23.360;2022-07-10T03:13:32;8.00;;;7.07;;
18606;SDS011;9433;42.678;23.360;2022-07-10T03:15:59;9.00;;;7.60;;
18606;SDS011;9433;42.678;23.360;2022-07-10T03:18:25;8.40;;;7.50;;
18606;SDS011;9433;42.678;23.360;2022-07-10T03:20:52;9.70;;;7.30;;
18606;SDS011;9433;42.678;23.360;2022-07-10T03:23:20;9.00;;;7.53;;
18606;SDS011;9433;42.678;23.360;2022-07-10T03:25:47;8.13;;;6.80;;
18606;SDS011;9433;42.678;23.360;2022-07-10T03:28:14;7.53;;;6.67;;
18606;SDS011;9433;42.678;23.360;2022-07-10T03:30:41;9.10;;;7.47;;
18606;SDS011;9433;42.678;23.360;2022-07-10T03:33:07;8.33;;;7.10;;
18606;SDS011;9433;42.678;23.360;2022-07-10T03:35:34;7.90;;;7.10;;
18606;SDS011;9433;42.678;23.360;2022-07-10T03:38:01;8.67;;;7.17;;
18606;SDS011;9433;42.678;23.360;2022-07-10T03:40:29;8.23;;;7.43;;
18606;SDS011;9433;42.678;23.360;2022-07-10T03:42:56;8.23;;;7.20;;
18606;SDS011;9433;42.678;23.360;2022-07-10T03:45:23;8.27;;;6.87;;
18606;SDS011;9433;42.678;23.360;2022-07-10T03:47:50;7.40;;;6.70;;
18606;SDS011;9433;42.678;23.360;2022-07-10T03:50:16;7.80;;;7.00;;
18606;SDS011;9433;42.678;23.360;2022-07-10T03:52:43;7.47;;;6.70;;
18606;SDS011;9433;42.678;23.360;2022-07-10T03:55:11;11.70;;;8.50;;
18606;SDS011;9433;42.678;23.360;2022-07-10T03:57:39;8.57;;;7.60;;
18606;SDS011;9433;42.678;23.360;2022-07-10T04:00:22;8.60;;;7.63;;
18606;SDS011;9433;42.678;23.360;2022-07-10T04:02:56;8.50;;;7.50;;
18606;SDS011;9433;42.678;23.360;2022-07-10T04:05:24;7.30;;;6.60;;
18606;SDS011;9433;42.678;23.360;2022-07-10T04:07:50;7.87;;;6.97;;
18606;SDS011;9433;42.678;23.360;2022-07-10T04:10:18;7.50;;;6.63;;
18606;SDS011;9433;42.678;23.360;2022-07-10T04:12:46;8.30;;;6.57;;
18606;SDS011;9433;42.678;23.360;2022-07-10T04:15:14;8.13;;;7.33;;
18606;SDS011;9433;42.678;23.360;2022-07-10T04:17:40;8.77;;;6.80;;
18606;SDS011;9433;42.678;23.360;2022-07-10T04:20:08;8.00;;;7.20;;
18606;SDS011;9433;42.678;23.360;2022-07-10T04:22:35;7.73;;;6.93;;
18606;SDS011;9433;42.678;23.360;2022-07-10T04:25:02;7.40;;;6.60;;
18606;SDS011;9433;42.678;23.360;2022-07-10T04:27:30;7.40;;;6.57;;
18606;SDS011;9433;42.678;23.360;2022-07-10T04:29:58;7.77;;;6.13;;
18606;SDS011;9433;42.678;23.360;2022-07-10T04:32:25;7.30;;;6.60;;
18606;SDS011;9433;42.678;23.360;2022-07-10T04:34:53;7.60;;;6.80;;
18606;SDS011;9433;42.678;23.360;2022-07-10T04:37:20;9.60;;;7.37;;
18606;SDS011;9433;42.678;23.360;2022-07-10T04:39:47;7.33;;;6.63;;
18606;SDS011;9433;42.678;23.360;2022-07-10T04:42:14;8.93;;;7.37;;
18606;SDS011;9433;42.678;23.360;2022-07-10T04:44:40;8.50;;;6.43;;
18606;SDS011;9433;42.678;23.360;2022-07-10T04:47:09;7.87;;;6.93;;
18606;SDS011;9433;42.678;23.360;2022-07-10T04:49:36;9.17;;;6.57;;
18606;SDS011;9433;42.678;23.360;2022-07-10T04:52:03;8.00;;;6.73;;
18606;SDS011;9433;42.678;23.360;2022-07-10T04:54:30;6.77;;;6.07;;
18606;SDS011;9433;42.678;23.360;2022-07-10T04:56:57;7.07;;;6.37;;
18606;SDS011;9433;42.678;23.360;2022-07-10T04:59:25;7.17;;;6.47;;
18606;SDS011;9433;42.678;23.360;2022-07-10T05:01:52;8.33;;;6.63;;
18606;SDS011;9433;42.678;23.360;2022-07-10T05:04:20;7.37;;;6.57;;
18606;SDS011;9433;42.678;23.360;2022-07-10T05:06:46;7.23;;;6.53;;
18606;SDS011;9433;42.678;23.360;2022-07-10T05:09:13;7.73;;;6.53;;
18606;SDS011;9433;42.678;23.360;2022-07-10T05:11:40;7.03;;;6.37;;
18606;SDS011;9433;42.678;23.360;2022-07-10T05:14:07;6.80;;;6.20;;
18606;SDS011;9433;42.678;23.360;2022-07-10T05:16:33;8.30;;;6.63;;
18606;SDS011;9433;42.678;23.360;2022-07-10T05:19:00;6.77;;;6.07;;
18606;SDS011;9433;42.678;23.360;2022-07-10T05:21:28;7.17;;;6.47;;
18606;SDS011;9433;42.678;23.360;2022-07-10T05:23:55;6.77;;;6.00;;
18606;SDS011;9433;42.678;23.360;2022-07-10T05:26:22;6.67;;;5.97;;
18606;SDS011;9433;42.678;23.360;2022-07-10T05:28:49;8.57;;;5.97;;
18606;SDS011;9433;42.678;23.360;2022-07-10T05:31:16;6.80;;;6.10;;
18606;SDS011;9433;42.678;23.360;2022-07-10T05:33:42;7.13;;;6.10;;
18606;SDS011;9433;42.678;23.360;2022-07-10T05:36:09;6.83;;;5.90;;
18606;SDS011;9433;42.678;23.360;2022-07-10T05:38:37;6.33;;;5.73;;
18606;SDS011;9433;42.678;23.360;2022-07-10T05:41:04;7.47;;;5.87;;
18606;SDS011;9433;42.678;23.360;2022-07-10T05:43:31;6.87;;;6.27;;
18606;SDS011;9433;42.678;23.360;2022-07-10T05:45:58;6.83;;;6.20;;
18606;SDS011;9433;42.678;23.360;2022-07-10T05:48:24;6.63;;;5.93;;
18606;SDS011;9433;42.678;23.360;2022-07-10T05:50:51;6.03;;;5.40;;
18606;SDS011;9433;42.678;23.360;2022-07-10T05:53:18;6.47;;;5.87;;
18606;SDS011;9433;42.678;23.360;2022-07-10T05:55:47;7.10;;;6.47;;
18606;SDS011;9433;42.678;23.360;2022-07-10T05:58:14;6.33;;;5.30;;
18606;SDS011;9433;42.678;23.360;2022-07-10T06:00:41;6.80;;;6.07;;
18606;SDS011;9433;42.678;23.360;2022-07-10T06:03:09;6.17;;;5.57;;
18606;SDS011;9433;42.678;23.360;2022-07-10T06:05:36;6.37;;;5.10;;
18606;SDS011;9433;42.678;23.360;2022-07-10T06:08:03;5.53;;;5.00;;
18606;SDS011;9433;42.678;23.360;2022-07-10T06:10:30;6.47;;;5.03;;
18606;SDS011;9433;42.678;23.360;2022-07-10T06:12:58;5.37;;;4.83;;
18606;SDS011;9433;42.678;23.360;2022-07-10T06:15:25;5.60;;;5.10;;
18606;SDS011;9433;42.678;23.360;2022-07-10T06:17:52;8.33;;;5.57;;
18606;SDS011;9433;42.678;23.360;2022-07-10T06:20:22;5.57;;;5.07;;
18606;SDS011;9433;42.678;23.360;2022-07-10T06:22:49;5.87;;;4.67;;
18606;SDS011;9433;42.678;23.360;2022-07-10T06:25:16;4.30;;;3.90;;
18606;SDS011;9433;42.678;23.360;2022-07-10T06:27:43;5.37;;;4.83;;
18606;SDS011;9433;42.678;23.360;2022-07-10T06:30:14;4.73;;;4.33;;
18606;SDS011;9433;42.678;23.360;2022-07-10T06:32:41;5.30;;;4.80;;
18606;SDS011;9433;42.678;23.360;2022-07-10T06:35:09;5.27;;;4.40;;
18606;SDS011;9433;42.678;23.360;2022-07-10T06:37:36;6.57;;;5.13;;
18606;SDS011;9433;42.678;23.360;2022-07-10T06:40:04;5.40;;;4.37;;
18606;SDS011;9433;42.678;23.360;2022-07-10T06:42:31;5.10;;;4.27;;
18606;SDS011;9433;42.678;23.360;2022-07-10T06:44:58;4.67;;;4.27;;
18606;SDS011;9433;42.678;23.360;2022-07-10T06:47:26;6.27;;;4.20;;
18606;SDS011;9433;42.678;23.360;2022-07-10T06:50:11;4.53;;;4.13;;
18606;SDS011;9433;42.678;23.360;2022-07-10T06:52:38;4.50;;;3.50;;
18606;SDS011;9433;42.678;23.360;2022-07-10T06:55:06;4.13;;;3.77;;
18606;SDS011;9433;42.678;23.360;2022-07-10T06:57:33;5.17;;;4.77;;
18606;SDS011;9433;42.678;23.360;2022-07-10T07:00:00;6.27;;;3.80;;
18606;SDS011;9433;42.678;23.360;2022-07-10T07:02:28;5.83;;;4.80;;
18606;SDS011;9433;42.678;23.360;2022-07-10T07:04:55;4.37;;;3.93;;
18606;SDS011;9433;42.678;23.360;2022-07-10T07:07:22;6.03;;;4.30;;
18606;SDS011;9433;42.678;23.360;2022-07-10T07:09:49;4.47;;;4.07;;
18606;SDS011;9433;42.678;23.360;2022-07-10T07:12:16;4.80;;;4.40;;
18606;SDS011;9433;42.678;23.360;2022-07-10T07:14:43;3.50;;;3.17;;
18606;SDS011;9433;42.678;23.360;2022-07-10T07:17:10;4.30;;;3.83;;
18606;SDS011;9433;42.678;23.360;2022-07-10T07:19:41;3.57;;;3.27;;
18606;SDS011;9433;42.678;23.360;2022-07-10T07:22:25;3.73;;;3.43;;
18606;SDS011;9433;42.678;23.360;2022-07-10T07:25:09;4.00;;;3.70;;
18606;SDS011;9433;42.678;23.360;2022-07-10T07:27:38;6.30;;;4.10;;
18606;SDS011;9433;42.678;23.360;2022-07-10T07:30:05;5.33;;;4.10;;
18606;SDS011;9433;42.678;23.360;2022-07-10T07:32:33;5.67;;;4.73;;
18606;SDS011;9433;42.678;23.360;2022-07-10T07:35:02;4.47;;;4.07;;
18606;SDS011;9433;42.678;23.360;2022-07-10T07:37:36;4.70;;;3.83;;
18606;SDS011;9433;42.678;23.360;2022-07-10T07:40:04;5.10;;;4.23;;
18606;SDS011;9433;42.678;23.360;2022-07-10T07:42:32;4.77;;;4.37;;
18606;SDS011;9433;42.678;23.360;2022-07-10T07:44:59;4.20;;;3.80;;
18606;SDS011;9433;42.678;23.360;2022-07-10T07:47:26;5.07;;;3.90;;
18606;SDS011;9433;42.678;23.360;2022-07-10T07:49:53;3.97;;;3.40;;
18606;SDS011;9433;42.678;23.360;2022-07-10T07:52:21;4.50;;;4.10;;
18606;SDS011;9433;42.678;23.360;2022-07-10T07:54:48;4.07;;;3.77;;
18606;SDS011;9433;42.678;23.360;2022-07-10T07:57:16;4.43;;;4.00;;
18606;SDS011;9433;42.678;23.360;2022-07-10T07:59:42;4.20;;;3.57;;
18606;SDS011;9433;42.678;23.360;2022-07-10T08:02:09;4.47;;;3.47;;
18606;SDS011;9433;42.678;23.360;2022-07-10T08:04:36;3.43;;;3.13;;
18606;SDS011;9433;42.678;23.360;2022-07-10T08:07:03;3.67;;;3.37;;
18606;SDS011;9433;42.678;23.360;2022-07-10T08:09:31;3.80;;;3.50;;
18606;SDS011;9433;42.678;23.360;2022-07-10T08:11:58;3.60;;;3.10;;
18606;SDS011;9433;42.678;23.360;2022-07-10T08:14:25;3.30;;;3.00;;
18606;SDS011;9433;42.678;23.360;2022-07-10T08:16:51;5.13;;;2.97;;
18606;SDS011;9433;42.678;23.360;2022-07-10T08:19:18;3.23;;;2.93;;
18606;SDS011;9433;42.678;23.360;2022-07-10T08:21:45;3.50;;;3.20;;
18606;SDS011;9433;42.678;23.360;2022-07-10T08:24:12;3.63;;;3.30;;
18606;SDS011;9433;42.678;23.360;2022-07-10T08:26:41;3.50;;;3.20;;
18606;SDS011;9433;42.678;23.360;2022-07-10T08:29:08;3.10;;;2.80;;
18606;SDS011;9433;42.678;23.360;2022-07-10T08:31:36;3.67;;;3.10;;
18606;SDS011;9433;42.678;23.360;2022-07-10T08:34:04;3.07;;;2.77;;
18606;SDS011;9433;42.678;23.360;2022-07-10T08:36:31;3.90;;;2.77;;
18606;SDS011;9433;42.678;23.360;2022-07-10T08:38:58;3.10;;;2.73;;
18606;SDS011;9433;42.678;23.360;2022-07-10T08:41:25;4.90;;;3.07;;
18606;SDS011;9433;42.678;23.360;2022-07-10T08:43:54;3.87;;;3.50;;
18606;SDS011;9433;42.678;23.360;2022-07-10T08:46:21;3.30;;;3.00;;
18606;SDS011;9433;42.678;23.360;2022-07-10T08:48:48;3.37;;;3.07;;
18606;SDS011;9433;42.678;23.360;2022-07-10T08:51:20;4.10;;;3.07;;
18606;SDS011;9433;42.678;23.360;2022-07-10T08:53:50;3.10;;;2.77;;
18606;SDS011;9433;42.678;23.360;2022-07-10T08:56:17;4.27;;;2.73;;
18606;SDS011;9433;42.678;23.360;2022-07-10T08:58:44;5.13;;;2.83;;
18606;SDS011;9433;42.678;23.360;2022-07-10T09:01:14;4.70;;;3.20;;
18606;SDS011;9433;42.678;23.360;2022-07-10T09:03:47;3.43;;;2.90;;
18606;SDS011;9433;42.678;23.360;2022-07-10T09:06:14;4.37;;;3.10;;
18606;SDS011;9433;42.678;23.360;2022-07-10T09:08:45;3.27;;;2.97;;
18606;SDS011;9433;42.678;23.360;2022-07-10T09:11:24;2.80;;;2.57;;
18606;SDS011;9433;42.678;23.360;2022-07-10T09:13:54;4.40;;;2.83;;
18606;SDS011;9433;42.678;23.360;2022-07-10T09:16:24;3.63;;;2.73;;
18606;SDS011;9433;42.678;23.360;2022-07-10T09:18:52;3.60;;;2.80;;
18606;SDS011;9433;42.678;23.360;2022-07-10T09:21:19;2.45;;;2.25;;
18606;SDS011;9433;42.678;23.360;2022-07-10T09:23:46;3.72;;;2.83;;
18606;SDS011;9433;42.678;23.360;2022-07-10T09:26:13;4.85;;;3.03;;
18606;SDS011;9433;42.678;23.360;2022-07-10T09:28:40;3.60;;;2.45;;
18606;SDS011;9433;42.678;23.360;2022-07-10T09:31:07;3.15;;;2.85;;
18606;SDS011;9433;42.678;23.360;2022-07-10T09:33:35;3.03;;;2.83;;
18606;SDS011;9433;42.678;23.360;2022-07-10T09:36:05;4.57;;;2.70;;
18606;SDS011;9433;42.678;23.360;2022-07-10T09:38:50;2.88;;;2.58;;
18606;SDS011;9433;42.678;23.360;2022-07-10T09:41:19;2.92;;;2.70;;
18606;SDS011;9433;42.678;23.360;2022-07-10T09:43:51;3.65;;;2.90;;
18606;SDS011;9433;42.678;23.360;2022-07-10T09:46:21;3.25;;;2.78;;
18606;SDS011;9433;42.678;23.360;2022-07-10T09:49:00;2.72;;;2.53;;
18606;SDS011;9433;42.678;23.360;2022-07-10T09:51:29;2.55;;;2.38;;
18606;SDS011;9433;42.678;23.360;2022-07-10T09:53:59;2.55;;;2.35;;
18606;SDS011;9433;42.678;23.360;2022-07-10T09:56:27;3.75;;;2.92;;
18606;SDS011;9433;42.678;23.360;2022-07-10T09:58:58;3.40;;;2.80;;
18606;SDS011;9433;42.678;23.360;2022-07-10T10:01:26;3.03;;;2.72;;
18606;SDS011;9433;42.678;23.360;2022-07-10T10:03:54;2.90;;;2.40;;
18606;SDS011;9433;42.678;23.360;2022-07-10T10:06:26;4.68;;;2.55;;
18606;SDS011;9433;42.678;23.360;2022-07-10T10:08:56;2.85;;;2.40;;
18606;SDS011;9433;42.678;23.360;2022-07-10T10:11:26;2.58;;;2.28;;
18606;SDS011;9433;42.678;23.360;2022-07-10T10:13:53;3.22;;;2.25;;
18606;SDS011;9433;42.678;23.360;2022-07-10T10:16:21;3.97;;;2.85;;
18606;SDS011;9433;42.678;23.360;2022-07-10T10:18:49;2.80;;;2.50;;
18606;SDS011;9433;42.678;23.360;2022-07-10T10:21:36;2.33;;;2.13;;
18606;SDS011;9433;42.678;23.360;2022-07-10T10:24:03;2.70;;;2.50;;
18606;SDS011;9433;42.678;23.360;2022-07-10T10:26:30;3.33;;;2.53;;
18606;SDS011;9433;42.678;23.360;2022-07-10T10:28:57;2.50;;;2.30;;
18606;SDS011;9433;42.678;23.360;2022-07-10T10:31:26;1.88;;;1.77;;
18606;SDS011;9433;42.678;23.360;2022-07-10T10:33:54;2.50;;;2.22;;
18606;SDS011;9433;42.678;23.360;2022-07-10T10:36:44;2.47;;;2.28;;
18606;SDS011;9433;42.678;23.360;2022-07-10T10:39:14;2.33;;;2.15;;
18606;SDS011;9433;42.678;23.360;2022-07-10T10:41:46;2.60;;;1.92;;
18606;SDS011;9433;42.678;23.360;2022-07-10T10:44:24;2.70;;;2.40;;
18606;SDS011;9433;42.678;23.360;2022-07-10T10:46:54;2.63;;;2.42;;
18606;SDS011;9433;42.678;23.360;2022-07-10T10:49:26;4.32;;;2.53;;
18606;SDS011;9433;42.678;23.360;2022-07-10T10:51:58;3.85;;;2.40;;
18606;SDS011;9433;42.678;23.360;2022-07-10T10:54:27;2.85;;;2.17;;
18606;SDS011;9433;42.678;23.360;2022-07-10T10:59:46;2.15;;;2.05;;
18606;SDS011;9433;42.678;23.360;2022-07-10T11:02:24;2.78;;;2.25;;
18606;SDS011;9433;42.678;23.360;2022-07-10T11:04:52;2.38;;;2.22;;
18606;SDS011;9433;42.678;23.360;2022-07-10T11:10:26;2.95;;;2.10;;
18606;SDS011;9433;42.678;23.360;2022-07-10T11:12:56;3.92;;;2.00;;
18606;SDS011;9433;42.678;23.360;2022-07-10T11:15:24;2.50;;;2.30;;
18606;SDS011;9433;42.678;23.360;2022-07-10T11:17:55;2.30;;;1.95;;
18606;SDS011;9433;42.678;23.360;2022-07-10T11:20:22;3.22;;;2.20;;
18606;SDS011;9433;42.678;23.360;2022-07-10T11:22:52;4.18;;;2.47;;
18606;SDS011;9433;42.678;23.360;2022-07-10T11:25:36;2.47;;;2.00;;
18606;SDS011;9433;42.678;23.360;2022-07-10T11:28:10;2.63;;;2.00;;
18606;SDS011;9433;42.678;23.360;2022-07-10T11:30:45;2.20;;;2.00;;
18606;SDS011;9433;42.678;23.360;2022-07-10T11:33:14;2.30;;;2.00;;
18606;SDS011;9433;42.678;23.360;2022-07-10T11:35:43;2.22;;;2.03;;
18606;SDS011;9433;42.678;23.360;2022-07-10T11:38:12;2.55;;;2.35;;
18606;SDS011;9433;42.678;23.360;2022-07-10T11:40:45;2.90;;;2.35;;
18606;SDS011;9433;42.678;23.360;2022-07-10T11:43:12;2.47;;;2.20;;
18606;SDS011;9433;42.678;23.360;2022-07-10T11:45:42;3.22;;;2.28;;
18606;SDS011;9433;42.678;23.360;2022-07-10T11:48:16;2.65;;;2.45;;
18606;SDS011;9433;42.678;23.360;2022-07-10T11:50:43;2.28;;;1.80;;
18606;SDS011;9433;42.678;23.360;2022-07-10T11:53:10;2.35;;;2.10;;
18606;SDS011;9433;42.678;23.360;2022-07-10T11:55:39;2.72;;;2.30;;
18606;SDS011;9433;42.678;23.360;2022-07-10T11:58:13;1.75;;;1.65;;
18606;SDS011;9433;42.678;23.360;2022-07-10T12:00:40;2.50;;;2.30;;
18606;SDS011;9433;42.678;23.360;2022-07-10T12:03:18;2.95;;;2.10;;
18606;SDS011;9433;42.678;23.360;2022-07-10T12:05:46;2.83;;;1.90;;
18606;SDS011;9433;42.678;23.360;2022-07-10T12:08:14;3.75;;;1.80;;
18606;SDS011;9433;42.678;23.360;2022-07-10T12:10:42;3.55;;;2.20;;
18606;SDS011;9433;42.678;23.360;2022-07-10T12:13:10;2.13;;;1.88;;
18606;SDS011;9433;42.678;23.360;2022-07-10T12:15:39;2.53;;;1.90;;
18606;SDS011;9433;42.678;23.360;2022-07-10T12:18:06;2.00;;;1.80;;
18606;SDS011;9433;42.678;23.360;2022-07-10T12:20:34;2.42;;;2.05;;
18606;SDS011;9433;42.678;23.360;2022-07-10T12:23:02;1.77;;;1.67;;
18606;SDS011;9433;42.678;23.360;2022-07-10T12:25:30;1.70;;;1.60;;
18606;SDS011;9433;42.678;23.360;2022-07-10T12:27:58;2.25;;;1.85;;
18606;SDS011;9433;42.678;23.360;2022-07-10T12:30:38;1.83;;;1.73;;
18606;SDS011;9433;42.678;23.360;2022-07-10T12:33:09;1.90;;;1.80;;
18606;SDS011;9433;42.678;23.360;2022-07-10T12:35:50;1.88;;;1.70;;
18606;SDS011;9433;42.678;23.360;2022-07-10T12:38:20;2.58;;;1.45;;
18606;SDS011;9433;42.678;23.360;2022-07-10T12:40:47;1.77;;;1.67;;
18606;SDS011;9433;42.678;23.360;2022-07-10T12:43:25;4.80;;;2.15;;
18606;SDS011;9433;42.678;23.360;2022-07-10T12:46:12;1.80;;;1.70;;
18606;SDS011;9433;42.678;23.360;2022-07-10T12:48:41;3.50;;;1.65;;
18606;SDS011;9433;42.678;23.360;2022-07-10T12:53:55;3.75;;;1.80;;
18606;SDS011;9433;42.678;23.360;2022-07-10T12:56:26;1.98;;;1.70;;
18606;SDS011;9433;42.678;23.360;2022-07-10T12:58:58;2.35;;;1.50;;
18606;SDS011;9433;42.678;23.360;2022-07-10T13:01:25;1.80;;;1.63;;
18606;SDS011;9433;42.678;23.360;2022-07-10T13:03:57;7.55;;;2.58;;
18606;SDS011;9433;42.678;23.360;2022-07-10T13:06:25;4.43;;;1.70;;
18606;SDS011;9433;42.678;23.360;2022-07-10T13:08:53;1.48;;;1.38;;
18606;SDS011;9433;42.678;23.360;2022-07-10T13:11:20;4.07;;;2.10;;
18606;SDS011;9433;42.678;23.360;2022-07-10T13:13:47;1.45;;;1.30;;
18606;SDS011;9433;42.678;23.360;2022-07-10T13:16:16;1.33;;;1.23;;
18606;SDS011;9433;42.678;23.360;2022-07-10T13:18:43;1.98;;;1.77;;
18606;SDS011;9433;42.678;23.360;2022-07-10T13:21:10;2.20;;;1.52;;
18606;SDS011;9433;42.678;23.360;2022-07-10T13:23:38;1.67;;;0.70;;
18606;SDS011;9433;42.678;23.360;2022-07-10T13:26:06;2.42;;;1.30;;
18606;SDS011;9433;42.678;23.360;2022-07-10T13:28:33;1.58;;;1.20;;
18606;SDS011;9433;42.678;23.360;2022-07-10T13:31:00;1.40;;;1.17;;
18606;SDS011;9433;42.678;23.360;2022-07-10T13:33:29;2.38;;;1.15;;
18606;SDS011;9433;42.678;23.360;2022-07-10T13:35:59;1.00;;;0.93;;
18606;SDS011;9433;42.678;23.360;2022-07-10T13:38:26;1.52;;;1.13;;
18606;SDS011;9433;42.678;23.360;2022-07-10T13:40:53;1.65;;;1.00;;
18606;SDS011;9433;42.678;23.360;2022-07-10T13:43:20;3.25;;;1.33;;
18606;SDS011;9433;42.678;23.360;2022-07-10T13:45:52;1.13;;;1.05;;
18606;SDS011;9433;42.678;23.360;2022-07-10T13:48:19;3.05;;;1.05;;
18606;SDS011;9433;42.678;23.360;2022-07-10T13:50:47;1.35;;;0.90;;
18606;SDS011;9433;42.678;23.360;2022-07-10T13:53:15;1.98;;;1.00;;
18606;SDS011;9433;42.678;23.360;2022-07-10T13:55:42;0.70;;;0.68;;
18606;SDS011;9433;42.678;23.360;2022-07-10T13:58:09;1.02;;;0.90;;
18606;SDS011;9433;42.678;23.360;2022-07-10T14:00:36;1.55;;;1.10;;
18606;SDS011;9433;42.678;23.360;2022-07-10T14:03:03;1.45;;;1.10;;
18606;SDS011;9433;42.678;23.360;2022-07-10T14:05:31;1.25;;;1.15;;
18606;SDS011;9433;42.678;23.360;2022-07-10T14:07:59;1.25;;;1.15;;
18606;SDS011;9433;42.678;23.360;2022-07-10T14:10:26;2.03;;;1.10;;
18606;SDS011;9433;42.678;23.360;2022-07-10T14:12:53;2.03;;;1.10;;
18606;SDS011;9433;42.678;23.360;2022-07-10T14:15:20;1.10;;;1.00;;
18606;SDS011;9433;42.678;23.360;2022-07-10T14:17:47;1.38;;;0.98;;
18606;SDS011;9433;42.678;23.360;2022-07-10T14:20:15;1.25;;;1.17;;
18606;SDS011;9433;42.678;23.360;2022-07-10T14:22:42;1.20;;;0.98;;
18606;SDS011;9433;42.678;23.360;2022-07-10T14:25:12;3.40;;;1.02;;
18606;SDS011;9433;42.678;23.360;2022-07-10T14:27:39;1.02;;;1.00;;
18606;SDS011;9433;42.678;23.360;2022-07-10T14:30:07;2.10;;;1.05;;
18606;SDS011;9433;42.678;23.360;2022-07-10T14:32:34;0.90;;;0.90;;
18606;SDS011;9433;42.678;23.360;2022-07-10T14:35:01;1.00;;;1.00;;
18606;SDS011;9433;42.678;23.360;2022-07-10T14:37:28;1.45;;;1.00;;
18606;SDS011;9433;42.678;23.360;2022-07-10T14:39:55;2.33;;;1.13;;
18606;SDS011;9433;42.678;23.360;2022-07-10T14:42:26;1.20;;;1.10;;
18606;SDS011;9433;42.678;23.360;2022-07-10T14:44:53;1.30;;;1.20;;
18606;SDS011;9433;42.678;23.360;2022-07-10T14:47:19;1.10;;;1.00;;
18606;SDS011;9433;42.678;23.360;2022-07-10T14:49:47;1.83;;;1.02;;
18606;SDS011;9433;42.678;23.360;2022-07-10T14:52:14;1.20;;;1.10;;
18606;SDS011;9433;42.678;23.360;2022-07-10T14:54:43;1.20;;;1.10;;
18606;SDS011;9433;42.678;23.360;2022-07-10T14:57:09;0.88;;;0.88;;
18606;SDS011;9433;42.678;23.360;2022-07-10T14:59:39;1.23;;;1.13;;
18606;SDS011;9433;42.678;23.360;2022-07-10T15:02:06;3.65;;;1.63;;
18606;SDS011;9433;42.678;23.360;2022-07-10T15:04:33;1.95;;;1.38;;